Historyczne dane pomiarowe

Dodano dane terminowe – wersja testowa.

Dane z okresu 1951-2019

Wersja bazy: 1.34 [2019-03-16, lista zmian], aktualizacja planowana na 2019-04-15

Dane meteo z obszaru Polski uzyskane na podstawie danych udostępnionych przez Instytut Meteorologii i Gospodarki Wodnej – Państwowy Instytut Badawczy.

 

Wybierz Datę:    

       

TemperaturaWilgotnośćWiatrCiśnienieOpadyŚniegCzas trwania zjawisk
 Stacja t tx tn tng RH VA  wxwx mslp ppp RRR   cm mm wxwxwxwxwxwxwx
1999-08-14 13.8 20.2 8.6 4.8 71.3- 3.3 1.7---- 0.0------------
1999-08-13 13.8 18.0 9.5 6.4 72.5- 6.0 1.3---- 0.0------------
1999-08-12 15.2 18.2 12.9 12.3 86.3- 7.0 0.7---- 0.0------------
1999-08-11 18.7 23.2 15.5 14.1 81.5- 4.7 2.0---- 13.8------------
1999-08-10 20.3 26.5 16.9 12.6 87.5- 7.7 1.0---- 6.7------------
1999-08-09 22.0 28.4 18.1 14.9 82.0- 2.0 1.3---- 12.0------------
1999-08-08 21.8 27.0 17.1 14.7 77.0- 1.3 1.0---- 0.0------------
1999-08-07 22.0 28.9 15.4 11.6 80.3- 6.3 2.7---- 13.2------------
1999-08-06 21.4 27.0 16.8 14.4 85.5- 6.3 1.3---- 1.3------------
1999-08-05 18.5 26.0 11.8 7.9 66.5- 4.3 1.0---- 0.1------------
1999-08-04 17.2 23.9 10.7 6.5 67.0- 1.7 1.0---- 0.0------------
1999-08-03 16.0 22.2 10.1 5.1 76.0- 4.3 1.3---- 0.0------------
1999-08-02 16.8 22.5 11.6 6.6 73.0- 3.3 1.0---- 0.0------------
1999-08-01 18.0 23.9 11.9 7.3 59.0- 1.7 1.0---- 0.0------------
1999-07-31 17.4 24.0 9.3 5.3 61.3- 2.3 1.0---- 0.0------------
1999-07-30 16.3 23.4 9.3 5.5 71.0- 1.7 1.7---- 0.0------------
1999-07-29 17.4 23.1 10.7 6.7 61.3- 1.3 1.3---- 0.0------------
1999-07-28 18.6 23.4 13.3 9.2 62.3- 3.0 1.0---- 0.0------------
1999-07-27 18.0 21.6 14.6 13.3 86.5- 8.0 1.0---- 0.4------------
1999-07-26 19.2 25.2 12.9 8.8 81.3- 4.0 1.3---- 0.0------------
1999-07-25 17.7 23.4 10.9 6.9 74.3- 1.3 1.0---- 0.0------------
1999-07-24 15.3 19.5 11.1 13.9 82.3- 6.3 1.0---- 0.0------------
1999-07-23 14.4 18.0 12.6 12.1 96.0- 7.7 1.0---- 18.0------------
1999-07-22 18.6 22.3 15.5 12.1 68.0- 7.3 2.0---- 13.7------------
1999-07-21 21.2 27.5 14.3 13.7 69.8- 4.7 2.0---- 1.0------------
1999-07-20 21.6 28.2 14.3 10.7 60.3- 1.0 1.7---- 0.0------------
1999-07-19 19.9 26.7 12.3 8.9 61.0- 1.0 1.3---- 0.0------------
1999-07-18 18.6 24.5 10.7 7.8 58.3- 0.3 1.0---- 0.0------------
1999-07-17 16.6 22.6 10.2 7.7 65.8- 1.0 0.7---- 0.0------------
1999-07-16 16.8 21.2 13.1 11.0 68.8- 3.7 1.0---- 0.0------------
1999-07-15 15.9 18.7 14.2 12.7 76.0- 7.3 1.7---- 0.0------------
1999-07-14 19.6 25.4 16.5 16.0 79.3- 5.7 1.0---- 44.0------------
1999-07-13 20.2 24.6 16.1 13.5 82.8- 7.0 2.0---- 5.9------------
1999-07-12 19.6 25.2 15.4 12.9 88.5- 5.0 1.7---- 11.2------------
1999-07-11 19.5 21.6 17.4 15.2 88.3- 6.7 2.0---- 5.2------------
1999-07-10 20.7 21.9 18.8 17.2 70.5- 6.3 3.3---- 0.0------------
1999-07-09 17.2 19.0 14.5 15.2 92.3- 8.0 1.0---- 4.0------------
1999-07-08 16.8 20.4 14.7 14.9 93.3- 8.0 1.3---- 11.7------------
1999-07-07 21.0 28.2 17.4 16.1 89.3- 8.0 1.0---- 27.9------------
1999-07-06 25.9 31.2 18.7 14.0 52.3- 0.3 2.7---- 0.0------------
1999-07-05 23.7 30.6 14.2 13.7 52.8- 1.0 2.7---- 0.0------------
1999-07-04 23.4 30.2 14.2 13.1 57.3- 0.7 0.7---- 0.0------------
1999-07-03 20.3 24.6 14.3 11.4 72.8- 3.7 1.3---- 0.0------------
1999-07-02 19.5 24.1 13.7 10.6 73.3- 2.7 0.3---- 0.0------------
1999-07-01 18.7 23.6 13.5 11.0 79.8- 6.0 0.0---- 0.0------------
1999-06-30 18.0 24.8 12.3 9.4 73.0- 4.3 1.0---- 0.0------------
1999-06-29 18.9 23.0 14.1 11.9 65.0- 1.7 0.7---- 0.0------------
1999-06-28 19.7 27.5 13.5 9.8 62.8- 5.0 2.0---- 10.4------------
1999-06-27 20.5 27.2 14.1 11.3 55.3- 2.0 1.7---- 0.0------------
1999-06-26 16.1 24.5 8.3 5.1 63.8- 3.0 1.3---- 0.0------------
1999-06-25 12.6 18.8 5.2 2.1 67.0- 2.0 0.7---- 0.0------------
1999-06-24 11.2 15.7 6.4 2.5 75.0- 5.0 1.0---- 0.0------------
1999-06-23 9.6 11.2 7.4 8.2 88.3- 8.0 2.0---- 1.1------------
1999-06-22 9.3 13.3 7.5 10.3 90.5- 8.0 3.7---- 50.6------------
1999-06-21 16.3 21.5 13.0 9.2 80.0- 7.3 1.3---- 54.8------------
1999-06-20 17.0 21.0 13.9 13.6 88.0- 7.3 0.7---- 1.0------------
1999-06-19 13.8 14.5 12.8 12.7 91.0- 8.0 1.0---- 0.2------------
1999-06-18 15.5 18.5 13.6 14.4 91.0- 8.0 1.0---- 66.4------------
1999-06-17 17.6 20.2 15.5 15.3 88.3- 8.0 1.0---- 23.3------------
1999-06-16 16.1 18.0 14.3 15.6 90.3- 8.0 1.0---- 0.3------------
259.9 ms

 

Źródłem pochodzenia danych jest Instytut Meteorologii i Gospodarki Wodnej – Państwowy Instytut Badawczy. Dane Instytutu Meteorologii i Gospodarki Wodnej – Państwowego Instytutu Badawczego zostały przetworzone.

Dane źródłowe można odnaleźć na stronie https://dane.imgw.pl